LIMC/MXP METAR and TAF weather

Enter ICAO airport designator
Station Type Date Time Source
LIMC METAR 2022/06/30 01:50 UTC NOAA

LIMC 300150Z VRB01KT CAVOK 20/17 Q1012 NOSIG


Station Type Date Time Source
LIMC Decoded METAR 2022/06/30 01:50 UTC NOAA

Milano / Malpensa, Italy (LIMC) 45-37N 008-44E 211M
Jun 29, 2022 - 09:50 PM EDT / 2022.06.30 0150 UTC
Wind: Variable at 1 MPH (1 KT):0
Visibility: greater than 7 mile(s):0
Temperature: 68 F (20 C)
Dew Point: 62 F (17 C)
Relative Humidity: 82%
Pressure (altimeter): 29.88 in. Hg (1012 hPa)
ob: LIMC 300150Z VRB01KT CAVOK 20/17 Q1012 NOSIG
cycle: 2

Station Type Date Time Source
LIMC TAF 2022/06/29 18:25 UTC NOAA

TAF LIMC 291700Z 2918/3024 22010KT CAVOK
BECMG 2918/2920 VRB05KT
BECMG 3014/3016 35010KT

Example: see airport list